sensor_id;sensor_type;location;lat;lon;timestamp;pressure;altitude;pressure_sealevel;temperature;humidity
55679;BME280;41573;51.446;-2.018;2023-05-03T00:00:13;101566.13;;;10.99;100.00
55679;BME280;41573;51.446;-2.018;2023-05-03T00:02:40;101566.38;;;10.93;100.00
55679;BME280;41573;51.446;-2.018;2023-05-03T00:05:09;101570.28;;;10.85;100.00
55679;BME280;41573;51.446;-2.018;2023-05-03T00:07:41;101565.09;;;10.82;100.00
55679;BME280;41573;51.446;-2.018;2023-05-03T00:10:08;101567.91;;;10.79;100.00
55679;BME280;41573;51.446;-2.018;2023-05-03T00:12:37;101565.38;;;10.76;100.00
55679;BME280;41573;51.446;-2.018;2023-05-03T00:15:02;101560.38;;;10.68;100.00
55679;BME280;41573;51.446;-2.018;2023-05-03T00:17:28;101567.31;;;10.73;100.00
55679;BME280;41573;51.446;-2.018;2023-05-03T00:19:53;101575.50;;;10.68;100.00
55679;BME280;41573;51.446;-2.018;2023-05-03T00:22:20;101573.13;;;10.62;100.00
55679;BME280;41573;51.446;-2.018;2023-05-03T00:24:46;101582.81;;;10.63;100.00
55679;BME280;41573;51.446;-2.018;2023-05-03T00:27:13;101585.50;;;10.63;100.00
55679;BME280;41573;51.446;-2.018;2023-05-03T00:29:39;101601.75;;;10.57;100.00
55679;BME280;41573;51.446;-2.018;2023-05-03T00:32:04;101608.00;;;10.56;100.00
55679;BME280;41573;51.446;-2.018;2023-05-03T00:34:30;101612.56;;;10.54;100.00
55679;BME280;41573;51.446;-2.018;2023-05-03T00:36:55;101622.75;;;10.44;100.00
55679;BME280;41573;51.446;-2.018;2023-05-03T00:39:20;101621.88;;;10.43;100.00
55679;BME280;41573;51.446;-2.018;2023-05-03T00:41:46;101618.53;;;10.38;100.00
55679;BME280;41573;51.446;-2.018;2023-05-03T00:44:11;101631.09;;;10.34;100.00
55679;BME280;41573;51.446;-2.018;2023-05-03T00:46:37;101633.00;;;10.31;100.00
55679;BME280;41573;51.446;-2.018;2023-05-03T00:49:02;101619.03;;;10.26;100.00
55679;BME280;41573;51.446;-2.018;2023-05-03T00:51:28;101622.66;;;10.23;100.00
55679;BME280;41573;51.446;-2.018;2023-05-03T00:53:53;101628.06;;;10.22;100.00
55679;BME280;41573;51.446;-2.018;2023-05-03T00:56:19;101621.19;;;10.16;100.00
55679;BME280;41573;51.446;-2.018;2023-05-03T00:58:49;101631.13;;;10.12;100.00
55679;BME280;41573;51.446;-2.018;2023-05-03T01:01:15;101624.31;;;10.05;100.00
55679;BME280;41573;51.446;-2.018;2023-05-03T01:03:40;101630.56;;;10.04;100.00
55679;BME280;41573;51.446;-2.018;2023-05-03T01:06:24;101623.63;;;10.00;100.00
55679;BME280;41573;51.446;-2.018;2023-05-03T01:09:19;101634.41;;;9.97;100.00
55679;BME280;41573;51.446;-2.018;2023-05-03T01:15:11;101628.78;;;9.82;100.00
55679;BME280;41573;51.446;-2.018;2023-05-03T01:17:46;101618.38;;;9.76;100.00
55679;BME280;41573;51.446;-2.018;2023-05-03T01:20:17;101618.38;;;9.76;100.00
55679;BME280;41573;51.446;-2.018;2023-05-03T01:22:53;101608.69;;;9.75;100.00
55679;BME280;41573;51.446;-2.018;2023-05-03T01:25:20;101599.16;;;9.70;100.00
55679;BME280;41573;51.446;-2.018;2023-05-03T01:27:46;101589.50;;;9.67;100.00
55679;BME280;41573;51.446;-2.018;2023-05-03T01:30:12;101594.97;;;9.64;100.00
55679;BME280;41573;51.446;-2.018;2023-05-03T01:35:26;101607.13;;;9.47;100.00
55679;BME280;41573;51.446;-2.018;2023-05-03T01:37:54;101602.13;;;9.40;100.00
55679;BME280;41573;51.446;-2.018;2023-05-03T01:40:22;101612.75;;;9.40;100.00
55679;BME280;41573;51.446;-2.018;2023-05-03T01:42:48;101614.47;;;9.41;100.00
55679;BME280;41573;51.446;-2.018;2023-05-03T01:45:14;101603.88;;;9.39;100.00
55679;BME280;41573;51.446;-2.018;2023-05-03T01:47:40;101603.09;;;9.37;100.00
55679;BME280;41573;51.446;-2.018;2023-05-03T01:50:05;101590.97;;;9.30;100.00
55679;BME280;41573;51.446;-2.018;2023-05-03T01:52:31;101589.47;;;9.23;100.00
55679;BME280;41573;51.446;-2.018;2023-05-03T01:54:57;101584.28;;;9.20;100.00
55679;BME280;41573;51.446;-2.018;2023-05-03T01:57:23;101592.34;;;9.17;100.00
55679;BME280;41573;51.446;-2.018;2023-05-03T01:59:48;101583.69;;;9.11;100.00
55679;BME280;41573;51.446;-2.018;2023-05-03T02:02:14;101585.44;;;9.12;100.00
55679;BME280;41573;51.446;-2.018;2023-05-03T02:04:39;101577.81;;;9.03;100.00
55679;BME280;41573;51.446;-2.018;2023-05-03T02:07:05;101573.53;;;8.99;100.00
55679;BME280;41573;51.446;-2.018;2023-05-03T02:09:31;101578.97;;;8.96;100.00
55679;BME280;41573;51.446;-2.018;2023-05-03T02:11:56;101573.00;;;8.89;100.00
55679;BME280;41573;51.446;-2.018;2023-05-03T02:14:22;101579.22;;;8.88;100.00
55679;BME280;41573;51.446;-2.018;2023-05-03T02:16:47;101580.31;;;8.84;100.00
55679;BME280;41573;51.446;-2.018;2023-05-03T02:19:12;101573.50;;;8.75;100.00
55679;BME280;41573;51.446;-2.018;2023-05-03T02:21:38;101577.91;;;8.76;100.00
55679;BME280;41573;51.446;-2.018;2023-05-03T02:24:04;101564.75;;;8.73;100.00
55679;BME280;41573;51.446;-2.018;2023-05-03T02:26:29;101571.03;;;8.71;100.00
55679;BME280;41573;51.446;-2.018;2023-05-03T02:28:55;101567.63;;;8.67;100.00
55679;BME280;41573;51.446;-2.018;2023-05-03T02:31:22;101564.16;;;8.65;100.00
55679;BME280;41573;51.446;-2.018;2023-05-03T02:33:48;101556.31;;;8.62;100.00
55679;BME280;41573;51.446;-2.018;2023-05-03T02:36:13;101552.09;;;8.56;100.00
55679;BME280;41573;51.446;-2.018;2023-05-03T02:38:39;101548.72;;;8.51;100.00
55679;BME280;41573;51.446;-2.018;2023-05-03T02:41:04;101540.13;;;8.44;100.00
55679;BME280;41573;51.446;-2.018;2023-05-03T02:43:29;101533.09;;;8.42;100.00
55679;BME280;41573;51.446;-2.018;2023-05-03T02:45:55;101531.47;;;8.38;100.00
55679;BME280;41573;51.446;-2.018;2023-05-03T02:48:21;101515.84;;;8.30;100.00
55679;BME280;41573;51.446;-2.018;2023-05-03T02:50:46;101516.75;;;8.29;100.00
55679;BME280;41573;51.446;-2.018;2023-05-03T02:53:11;101495.03;;;8.18;100.00
55679;BME280;41573;51.446;-2.018;2023-05-03T02:55:38;101495.22;;;8.13;100.00
55679;BME280;41573;51.446;-2.018;2023-05-03T02:58:04;101493.69;;;8.06;100.00
55679;BME280;41573;51.446;-2.018;2023-05-03T03:00:29;101491.31;;;7.98;100.00
55679;BME280;41573;51.446;-2.018;2023-05-03T03:02:54;101491.41;;;7.95;100.00
55679;BME280;41573;51.446;-2.018;2023-05-03T03:05:20;101482.78;;;7.88;100.00
55679;BME280;41573;51.446;-2.018;2023-05-03T03:07:45;101473.31;;;7.81;100.00
55679;BME280;41573;51.446;-2.018;2023-05-03T03:10:11;101476.88;;;7.80;100.00
55679;BME280;41573;51.446;-2.018;2023-05-03T03:12:36;101472.59;;;7.76;100.00
55679;BME280;41573;51.446;-2.018;2023-05-03T03:15:02;101456.84;;;7.71;100.00
55679;BME280;41573;51.446;-2.018;2023-05-03T03:17:28;101445.41;;;7.71;100.00
55679;BME280;41573;51.446;-2.018;2023-05-03T03:19:54;101436.66;;;7.67;100.00
55679;BME280;41573;51.446;-2.018;2023-05-03T03:22:19;101444.56;;;7.69;100.00
55679;BME280;41573;51.446;-2.018;2023-05-03T03:24:44;101448.03;;;7.71;100.00
55679;BME280;41573;51.446;-2.018;2023-05-03T03:27:10;101452.38;;;7.73;100.00
55679;BME280;41573;51.446;-2.018;2023-05-03T03:29:35;101443.47;;;7.74;100.00
55679;BME280;41573;51.446;-2.018;2023-05-03T03:32:01;101447.81;;;7.77;100.00
55679;BME280;41573;51.446;-2.018;2023-05-03T03:34:26;101450.41;;;7.79;100.00
55679;BME280;41573;51.446;-2.018;2023-05-03T03:36:52;101440.75;;;7.78;100.00
55679;BME280;41573;51.446;-2.018;2023-05-03T03:39:17;101426.66;;;7.75;100.00
55679;BME280;41573;51.446;-2.018;2023-05-03T03:41:43;101419.63;;;7.74;100.00
55679;BME280;41573;51.446;-2.018;2023-05-03T03:44:08;101413.81;;;7.63;100.00
55679;BME280;41573;51.446;-2.018;2023-05-03T03:46:34;101407.72;;;7.61;100.00
55679;BME280;41573;51.446;-2.018;2023-05-03T03:48:59;101392.03;;;7.55;100.00
55679;BME280;41573;51.446;-2.018;2023-05-03T03:51:25;101392.22;;;7.49;100.00
55679;BME280;41573;51.446;-2.018;2023-05-03T03:53:51;101384.44;;;7.44;100.00
55679;BME280;41573;51.446;-2.018;2023-05-03T03:56:17;101381.97;;;7.39;100.00
55679;BME280;41573;51.446;-2.018;2023-05-03T03:58:42;101369.75;;;7.35;100.00
55679;BME280;41573;51.446;-2.018;2023-05-03T04:01:07;101353.94;;;7.32;100.00
55679;BME280;41573;51.446;-2.018;2023-05-03T04:03:33;101345.16;;;7.30;100.00
55679;BME280;41573;51.446;-2.018;2023-05-03T04:05:58;101339.13;;;7.27;100.00
55679;BME280;41573;51.446;-2.018;2023-05-03T04:08:24;101326.78;;;7.25;100.00
55679;BME280;41573;51.446;-2.018;2023-05-03T04:10:49;101316.31;;;7.22;100.00
55679;BME280;41573;51.446;-2.018;2023-05-03T04:13:15;101317.25;;;7.20;100.00
55679;BME280;41573;51.446;-2.018;2023-05-03T04:15:40;101312.81;;;7.20;100.00
55679;BME280;41573;51.446;-2.018;2023-05-03T04:18:06;101316.31;;;7.22;100.00
55679;BME280;41573;51.446;-2.018;2023-05-03T04:20:31;101306.56;;;7.23;100.00
55679;BME280;41573;51.446;-2.018;2023-05-03T04:22:59;101303.16;;;7.19;100.00
55679;BME280;41573;51.446;-2.018;2023-05-03T04:25:25;101302.28;;;7.19;100.00
55679;BME280;41573;51.446;-2.018;2023-05-03T04:27:51;101310.22;;;7.19;100.00
55679;BME280;41573;51.446;-2.018;2023-05-03T04:30:16;101305.09;;;7.14;100.00
55679;BME280;41573;51.446;-2.018;2023-05-03T04:32:42;101302.44;;;7.14;100.00
55679;BME280;41573;51.446;-2.018;2023-05-03T04:35:08;101309.69;;;7.09;100.00
55679;BME280;41573;51.446;-2.018;2023-05-03T04:37:38;101300.03;;;7.08;100.00
55679;BME280;41573;51.446;-2.018;2023-05-03T04:40:05;101292.06;;;7.08;100.00
55679;BME280;41573;51.446;-2.018;2023-05-03T04:42:33;101306.97;;;7.11;100.00
55679;BME280;41573;51.446;-2.018;2023-05-03T04:44:59;101304.31;;;7.12;100.00
55679;BME280;41573;51.446;-2.018;2023-05-03T04:47:26;101299.00;;;7.12;100.00
55679;BME280;41573;51.446;-2.018;2023-05-03T04:49:52;101306.13;;;7.10;100.00
55679;BME280;41573;51.446;-2.018;2023-05-03T04:52:17;101295.47;;;7.12;100.00
55679;BME280;41573;51.446;-2.018;2023-05-03T04:54:43;101289.47;;;7.06;100.00
55679;BME280;41573;51.446;-2.018;2023-05-03T04:57:09;101286.84;;;7.06;100.00
55679;BME280;41573;51.446;-2.018;2023-05-03T04:59:35;101283.25;;;7.07;100.00
55679;BME280;41573;51.446;-2.018;2023-05-03T05:02:00;101277.03;;;7.08;100.00
55679;BME280;41573;51.446;-2.018;2023-05-03T05:04:26;101285.03;;;7.07;100.00
55679;BME280;41573;51.446;-2.018;2023-05-03T05:06:52;101272.81;;;7.03;100.00
55679;BME280;41573;51.446;-2.018;2023-05-03T05:09:26;101292.06;;;7.08;100.00
55679;BME280;41573;51.446;-2.018;2023-05-03T05:11:52;101300.72;;;7.13;100.00
55679;BME280;41573;51.446;-2.018;2023-05-03T05:14:18;101300.66;;;7.15;100.00
55679;BME280;41573;51.446;-2.018;2023-05-03T05:16:43;101296.13;;;7.18;100.00
55679;BME280;41573;51.446;-2.018;2023-05-03T05:19:09;101312.75;;;7.23;100.00
55679;BME280;41573;51.446;-2.018;2023-05-03T05:21:34;101323.22;;;7.27;100.00
55679;BME280;41573;51.446;-2.018;2023-05-03T05:24:00;101322.16;;;7.32;100.00
55679;BME280;41573;51.446;-2.018;2023-05-03T05:26:26;101338.03;;;7.32;100.00
55679;BME280;41573;51.446;-2.018;2023-05-03T05:28:52;101368.78;;;7.38;100.00
55679;BME280;41573;51.446;-2.018;2023-05-03T05:31:17;101378.28;;;7.44;100.00
55679;BME280;41573;51.446;-2.018;2023-05-03T05:33:43;101383.38;;;7.50;100.00
55679;BME280;41573;51.446;-2.018;2023-05-03T05:36:09;101392.22;;;7.49;100.00
55679;BME280;41573;51.446;-2.018;2023-05-03T05:38:34;101404.34;;;7.56;100.00
55679;BME280;41573;51.446;-2.018;2023-05-03T05:41:00;101409.34;;;7.65;100.00
55679;BME280;41573;51.446;-2.018;2023-05-03T05:43:26;101418.22;;;7.64;100.00
55679;BME280;41573;51.446;-2.018;2023-05-03T05:45:51;101421.66;;;7.68;100.00
55679;BME280;41573;51.446;-2.018;2023-05-03T05:48:16;101425.88;;;7.73;100.00
55679;BME280;41573;51.446;-2.018;2023-05-03T05:50:42;101438.00;;;7.81;100.00
55679;BME280;41573;51.446;-2.018;2023-05-03T05:53:07;101439.63;;;7.85;100.00
55679;BME280;41573;51.446;-2.018;2023-05-03T05:55:34;101437.88;;;7.84;100.00
55679;BME280;41573;51.446;-2.018;2023-05-03T05:57:59;101451.84;;;7.89;100.00
55679;BME280;41573;51.446;-2.018;2023-05-03T06:00:24;101464.03;;;7.94;100.00
55679;BME280;41573;51.446;-2.018;2023-05-03T06:02:50;101458.38;;;8.04;100.00
55679;BME280;41573;51.446;-2.018;2023-05-03T06:05:19;101464.47;;;8.07;100.00
55679;BME280;41573;51.446;-2.018;2023-05-03T06:07:44;101465.75;;;8.21;100.00
55679;BME280;41573;51.446;-2.018;2023-05-03T06:10:10;101477.97;;;8.25;100.00
55679;BME280;41573;51.446;-2.018;2023-05-03T06:12:35;101483.00;;;8.33;100.00
55679;BME280;41573;51.446;-2.018;2023-05-03T06:15:01;101488.16;;;8.37;100.00
55679;BME280;41573;51.446;-2.018;2023-05-03T06:17:27;101503.00;;;8.43;100.00
55679;BME280;41573;51.446;-2.018;2023-05-03T06:19:52;101514.38;;;8.47;100.00
55679;BME280;41573;51.446;-2.018;2023-05-03T06:22:17;101512.31;;;8.55;100.00
55679;BME280;41573;51.446;-2.018;2023-05-03T06:24:43;101528.25;;;8.55;100.00
55679;BME280;41573;51.446;-2.018;2023-05-03T06:27:08;101532.41;;;8.62;100.00
55679;BME280;41573;51.446;-2.018;2023-05-03T06:29:34;101531.00;;;8.75;100.00
55679;BME280;41573;51.446;-2.018;2023-05-03T06:31:59;101543.25;;;8.79;100.00
55679;BME280;41573;51.446;-2.018;2023-05-03T06:34:25;101555.50;;;8.84;100.00
55679;BME280;41573;51.446;-2.018;2023-05-03T06:36:51;101552.34;;;8.97;100.00
55679;BME280;41573;51.446;-2.018;2023-05-03T06:39:16;101560.06;;;9.04;100.00
55679;BME280;41573;51.446;-2.018;2023-05-03T06:41:42;101564.00;;;9.17;100.00
55679;BME280;41573;51.446;-2.018;2023-05-03T06:44:07;101569.97;;;9.22;100.00
55679;BME280;41573;51.446;-2.018;2023-05-03T06:46:33;101581.25;;;9.29;100.00
55679;BME280;41573;51.446;-2.018;2023-05-03T06:48:58;101596.22;;;9.31;100.00
55679;BME280;41573;51.446;-2.018;2023-05-03T06:51:25;101601.94;;;9.21;100.00
55679;BME280;41573;51.446;-2.018;2023-05-03T06:53:55;101606.53;;;9.39;100.00
55679;BME280;41573;51.446;-2.018;2023-05-03T06:56:21;101609.03;;;9.44;100.00
55679;BME280;41573;51.446;-2.018;2023-05-03T06:58:47;101615.41;;;9.40;100.00
55679;BME280;41573;51.446;-2.018;2023-05-03T07:01:13;101618.06;;;9.62;100.00
55679;BME280;41573;51.446;-2.018;2023-05-03T07:03:39;101625.00;;;9.66;100.00
55679;BME280;41573;51.446;-2.018;2023-05-03T07:06:04;101639.78;;;9.73;100.00
55679;BME280;41573;51.446;-2.018;2023-05-03T07:08:30;101632.44;;;9.80;100.00
55679;BME280;41573;51.446;-2.018;2023-05-03T07:10:56;101638.38;;;9.87;100.00
55679;BME280;41573;51.446;-2.018;2023-05-03T07:13:21;101640.91;;;9.90;100.00
55679;BME280;41573;51.446;-2.018;2023-05-03T07:15:47;101645.34;;;10.11;100.00
55679;BME280;41573;51.446;-2.018;2023-05-03T07:18:12;101643.31;;;10.18;100.00
55679;BME280;41573;51.446;-2.018;2023-05-03T07:20:38;101644.09;;;10.42;100.00
55679;BME280;41573;51.446;-2.018;2023-05-03T07:23:03;101650.34;;;10.41;100.00
55679;BME280;41573;51.446;-2.018;2023-05-03T07:25:31;101648.91;;;10.55;100.00
55679;BME280;41573;51.446;-2.018;2023-05-03T07:27:56;101649.91;;;10.73;100.00
55679;BME280;41573;51.446;-2.018;2023-05-03T07:30:21;101643.66;;;10.74;100.00
55679;BME280;41573;51.446;-2.018;2023-05-03T07:32:47;101651.56;;;10.75;100.00
55679;BME280;41573;51.446;-2.018;2023-05-03T07:35:14;101647.09;;;10.76;100.00
55679;BME280;41573;51.446;-2.018;2023-05-03T07:37:39;101648.22;;;10.91;100.00
55679;BME280;41573;51.446;-2.018;2023-05-03T07:40:05;101657.25;;;11.07;100.00
55679;BME280;41573;51.446;-2.018;2023-05-03T07:42:31;101657.22;;;11.09;100.00
55679;BME280;41573;51.446;-2.018;2023-05-03T07:44:58;101655.63;;;11.24;100.00
55679;BME280;41573;51.446;-2.018;2023-05-03T07:47:24;101664.00;;;11.35;100.00
55679;BME280;41573;51.446;-2.018;2023-05-03T07:49:50;101653.31;;;11.35;100.00
55679;BME280;41573;51.446;-2.018;2023-05-03T07:52:16;101647.97;;;11.54;100.00
55679;BME280;41573;51.446;-2.018;2023-05-03T07:54:42;101656.06;;;11.71;100.00
55679;BME280;41573;51.446;-2.018;2023-05-03T07:57:10;101661.16;;;11.95;100.00
55679;BME280;41573;51.446;-2.018;2023-05-03T07:59:36;101666.31;;;12.00;100.00
55679;BME280;41573;51.446;-2.018;2023-05-03T08:02:03;101677.09;;;11.97;100.00
55679;BME280;41573;51.446;-2.018;2023-05-03T08:04:28;101663.91;;;11.75;100.00
55679;BME280;41573;51.446;-2.018;2023-05-03T08:06:54;101661.03;;;11.79;100.00
55679;BME280;41573;51.446;-2.018;2023-05-03T08:09:22;101661.59;;;11.67;100.00
55679;BME280;41573;51.446;-2.018;2023-05-03T08:11:47;101664.69;;;11.77;100.00
55679;BME280;41573;51.446;-2.018;2023-05-03T08:14:13;101660.41;;;11.74;100.00
55679;BME280;41573;51.446;-2.018;2023-05-03T08:16:38;101663.53;;;11.82;100.00
55679;BME280;41573;51.446;-2.018;2023-05-03T08:19:04;101665.78;;;11.92;100.00
55679;BME280;41573;51.446;-2.018;2023-05-03T08:21:29;101668.00;;;12.01;100.00
55679;BME280;41573;51.446;-2.018;2023-05-03T08:23:55;101669.75;;;12.02;100.00
55679;BME280;41573;51.446;-2.018;2023-05-03T08:26:21;101667.34;;;12.15;100.00
55679;BME280;41573;51.446;-2.018;2023-05-03T08:28:46;101662.00;;;12.32;100.00
55679;BME280;41573;51.446;-2.018;2023-05-03T08:31:12;101656.94;;;12.45;100.00
55679;BME280;41573;51.446;-2.018;2023-05-03T08:33:37;101661.78;;;12.54;100.00
55679;BME280;41573;51.446;-2.018;2023-05-03T08:36:03;101660.16;;;12.69;100.00
55679;BME280;41573;51.446;-2.018;2023-05-03T08:38:28;101669.81;;;12.89;100.00
55679;BME280;41573;51.446;-2.018;2023-05-03T08:40:57;101672.91;;;13.15;100.00
55679;BME280;41573;51.446;-2.018;2023-05-03T08:43:26;101671.69;;;13.21;100.00
55679;BME280;41573;51.446;-2.018;2023-05-03T08:45:51;101679.59;;;13.06;100.00
55679;BME280;41573;51.446;-2.018;2023-05-03T08:48:17;101689.91;;;12.97;100.00
55679;BME280;41573;51.446;-2.018;2023-05-03T08:50:43;101678.03;;;13.02;100.00
55679;BME280;41573;51.446;-2.018;2023-05-03T08:53:09;101688.56;;;13.05;100.00
55679;BME280;41573;51.446;-2.018;2023-05-03T08:55:34;101678.06;;;13.18;100.00
55679;BME280;41573;51.446;-2.018;2023-05-03T08:58:00;101687.22;;;13.30;100.00
55679;BME280;41573;51.446;-2.018;2023-05-03T09:00:28;101682.13;;;13.25;100.00
55679;BME280;41573;51.446;-2.018;2023-05-03T09:02:54;101692.81;;;13.43;100.00
55679;BME280;41573;51.446;-2.018;2023-05-03T09:08:11;101683.16;;;13.88;100.00
55679;BME280;41573;51.446;-2.018;2023-05-03T09:10:39;101687.81;;;14.17;100.00
55679;BME280;41573;51.446;-2.018;2023-05-03T09:13:06;101689.75;;;14.45;100.00
55679;BME280;41573;51.446;-2.018;2023-05-03T09:15:32;101697.78;;;14.45;100.00
55679;BME280;41573;51.446;-2.018;2023-05-03T09:18:12;101691.19;;;14.67;100.00
55679;BME280;41573;51.446;-2.018;2023-05-03T09:20:40;101703.53;;;14.69;100.00
55679;BME280;41573;51.446;-2.018;2023-05-03T09:23:09;101708.38;;;14.32;100.00
55679;BME280;41573;51.446;-2.018;2023-05-03T09:28:06;101702.41;;;14.73;100.00
55679;BME280;41573;51.446;-2.018;2023-05-03T09:30:31;101709.22;;;14.32;100.00
55679;BME280;41573;51.446;-2.018;2023-05-03T09:32:57;101701.06;;;14.50;100.00
55679;BME280;41573;51.446;-2.018;2023-05-03T09:35:22;101693.88;;;14.51;100.00
55679;BME280;41573;51.446;-2.018;2023-05-03T09:37:47;101699.13;;;14.68;100.00
55679;BME280;41573;51.446;-2.018;2023-05-03T09:40:13;101693.75;;;14.68;100.00
55679;BME280;41573;51.446;-2.018;2023-05-03T09:43:05;101698.81;;;14.58;100.00
55679;BME280;41573;51.446;-2.018;2023-05-03T09:45:32;101696.94;;;14.75;100.00
55679;BME280;41573;51.446;-2.018;2023-05-03T09:48:00;101694.97;;;14.78;100.00
55679;BME280;41573;51.446;-2.018;2023-05-03T09:50:26;101698.91;;;14.87;100.00
55679;BME280;41573;51.446;-2.018;2023-05-03T09:52:52;101699.63;;;14.75;100.00
55679;BME280;41573;51.446;-2.018;2023-05-03T09:55:18;101689.28;;;14.69;100.00
55679;BME280;41573;51.446;-2.018;2023-05-03T09:57:46;101696.56;;;14.81;100.00
55679;BME280;41573;51.446;-2.018;2023-05-03T10:00:12;101698.31;;;14.96;100.00
55679;BME280;41573;51.446;-2.018;2023-05-03T10:02:39;101688.19;;;15.02;100.00
55679;BME280;41573;51.446;-2.018;2023-05-03T10:05:06;101688.28;;;15.00;100.00
55679;BME280;41573;51.446;-2.018;2023-05-03T10:07:34;101694.69;;;14.97;100.00
55679;BME280;41573;51.446;-2.018;2023-05-03T10:10:00;101692.59;;;15.31;100.00
55679;BME280;41573;51.446;-2.018;2023-05-03T10:12:26;101691.06;;;15.42;100.00
55679;BME280;41573;51.446;-2.018;2023-05-03T10:14:53;101699.13;;;15.42;100.00
55679;BME280;41573;51.446;-2.018;2023-05-03T10:17:29;101689.31;;;15.69;100.00
55679;BME280;41573;51.446;-2.018;2023-05-03T10:25:29;101690.69;;;15.33;100.00
55679;BME280;41573;51.446;-2.018;2023-05-03T10:28:07;101693.19;;;15.37;100.00
55679;BME280;41573;51.446;-2.018;2023-05-03T10:30:38;101690.66;;;15.62;100.00
55679;BME280;41573;51.446;-2.018;2023-05-03T10:35:40;101687.09;;;15.76;100.00
55679;BME280;41573;51.446;-2.018;2023-05-03T10:38:16;101684.13;;;15.52;100.00
55679;BME280;41573;51.446;-2.018;2023-05-03T10:40:42;101678.06;;;15.77;100.00
55679;BME280;41573;51.446;-2.018;2023-05-03T10:45:58;101677.53;;;15.58;100.00
55679;BME280;41573;51.446;-2.018;2023-05-03T10:48:23;101672.63;;;15.64;100.00
55679;BME280;41573;51.446;-2.018;2023-05-03T10:50:49;101666.69;;;15.74;100.00
55679;BME280;41573;51.446;-2.018;2023-05-03T10:53:34;101667.81;;;15.84;100.00
55679;BME280;41573;51.446;-2.018;2023-05-03T10:58:35;101657.03;;;15.98;100.00
55679;BME280;41573;51.446;-2.018;2023-05-03T11:01:02;101651.38;;;16.16;100.00
55679;BME280;41573;51.446;-2.018;2023-05-03T11:08:53;101645.63;;;16.22;100.00
55679;BME280;41573;51.446;-2.018;2023-05-03T11:11:19;101651.13;;;16.33;100.00
55679;BME280;41573;51.446;-2.018;2023-05-03T11:13:45;101648.56;;;16.32;100.00
55679;BME280;41573;51.446;-2.018;2023-05-03T11:16:11;101642.22;;;16.46;100.00
55679;BME280;41573;51.446;-2.018;2023-05-03T11:18:37;101637.47;;;16.36;100.00
55679;BME280;41573;51.446;-2.018;2023-05-03T11:21:02;101630.28;;;16.50;100.00
55679;BME280;41573;51.446;-2.018;2023-05-03T11:23:28;101625.16;;;16.07;100.00
55679;BME280;41573;51.446;-2.018;2023-05-03T11:25:54;101627.72;;;16.08;100.00
55679;BME280;41573;51.446;-2.018;2023-05-03T11:28:22;101625.81;;;16.23;100.00
55679;BME280;41573;51.446;-2.018;2023-05-03T11:30:47;101619.97;;;16.44;100.00
55679;BME280;41573;51.446;-2.018;2023-05-03T11:33:13;101615.31;;;16.46;100.00
55679;BME280;41573;51.446;-2.018;2023-05-03T11:35:38;101616.84;;;16.50;100.00
55679;BME280;41573;51.446;-2.018;2023-05-03T11:38:04;101620.31;;;16.52;100.00
55679;BME280;41573;51.446;-2.018;2023-05-03T11:40:30;101614.59;;;16.69;100.00
55679;BME280;41573;51.446;-2.018;2023-05-03T11:42:57;101613.31;;;16.62;100.00
55679;BME280;41573;51.446;-2.018;2023-05-03T11:45:44;101610.94;;;16.70;100.00
55679;BME280;41573;51.446;-2.018;2023-05-03T11:48:11;101603.72;;;16.58;100.00
55679;BME280;41573;51.446;-2.018;2023-05-03T11:50:53;101600.53;;;16.79;100.00
55679;BME280;41573;51.446;-2.018;2023-05-03T11:53:21;101604.69;;;16.70;100.00
55679;BME280;41573;51.446;-2.018;2023-05-03T11:55:50;101593.75;;;16.86;100.00
55679;BME280;41573;51.446;-2.018;2023-05-03T11:58:19;101585.00;;;16.82;100.00
55679;BME280;41573;51.446;-2.018;2023-05-03T12:00:46;101596.00;;;16.92;100.00
55679;BME280;41573;51.446;-2.018;2023-05-03T12:03:20;101593.97;;;17.09;100.00
55679;BME280;41573;51.446;-2.018;2023-05-03T12:05:46;101589.25;;;17.36;100.00
55679;BME280;41573;51.446;-2.018;2023-05-03T12:08:12;101583.09;;;17.47;100.00
55679;BME280;41573;51.446;-2.018;2023-05-03T12:10:37;101583.94;;;16.85;100.00
55679;BME280;41573;51.446;-2.018;2023-05-03T12:13:03;101580.09;;;16.89;100.00
55679;BME280;41573;51.446;-2.018;2023-05-03T12:15:31;101580.72;;;17.18;100.00
55679;BME280;41573;51.446;-2.018;2023-05-03T12:17:58;101566.28;;;17.44;100.00
55679;BME280;41573;51.446;-2.018;2023-05-03T12:20:25;101562.94;;;17.53;100.00
55679;BME280;41573;51.446;-2.018;2023-05-03T12:22:59;101560.41;;;17.38;100.00
55679;BME280;41573;51.446;-2.018;2023-05-03T12:25:25;101557.88;;;17.48;100.00
55679;BME280;41573;51.446;-2.018;2023-05-03T12:27:52;101559.69;;;17.48;100.00
55679;BME280;41573;51.446;-2.018;2023-05-03T12:30:18;101557.13;;;17.70;100.00
55679;BME280;41573;51.446;-2.018;2023-05-03T12:32:43;101548.50;;;17.54;100.00
55679;BME280;41573;51.446;-2.018;2023-05-03T12:35:09;101540.44;;;17.65;100.00
55679;BME280;41573;51.446;-2.018;2023-05-03T12:37:35;101532.78;;;17.48;100.00
55679;BME280;41573;51.446;-2.018;2023-05-03T12:40:02;101537.22;;;17.12;100.00
55679;BME280;41573;51.446;-2.018;2023-05-03T12:42:28;101537.66;;;17.05;100.00
55679;BME280;41573;51.446;-2.018;2023-05-03T12:44:57;101524.41;;;17.02;100.00
55679;BME280;41573;51.446;-2.018;2023-05-03T12:47:23;101518.91;;;17.04;100.00
55679;BME280;41573;51.446;-2.018;2023-05-03T12:49:48;101516.94;;;17.19;100.00
55679;BME280;41573;51.446;-2.018;2023-05-03T12:52:14;101524.94;;;17.45;100.00
55679;BME280;41573;51.446;-2.018;2023-05-03T12:54:39;101516.72;;;17.22;100.00
55679;BME280;41573;51.446;-2.018;2023-05-03T12:57:06;101509.84;;;17.18;100.00
55679;BME280;41573;51.446;-2.018;2023-05-03T12:59:34;101515.53;;;17.26;100.00
55679;BME280;41573;51.446;-2.018;2023-05-03T13:02:00;101517.81;;;17.19;100.00